Terminal Aerodrome Forecast
Issued by NWS Atlanta, GA

Home | Current Version | Previous Version | Text Only | Print | Product List | Glossary On
Versions: 1 2 3 4 5 6 7 8 9 10 11 12 13 14 15 16 17 18 19 20 21 22 23 24 25 26 27 28
000
FTUS42 KFFC 272341
TAFMCN
TAF
KMCN 272341Z 2800/2824 33010KT P6SM VCSH SCT040 SCT100
      TEMPO 2800/2802 VRB20G30KT 4SM -TSRA BKN050CB
     FM280200 00000KT P6SM FEW100
     FM281400 25005KT P6SM SCT040
     FM281800 27008KT P6SM BKN050 PROB30 2821/2824 VRB18G24KT 4SM
      TSRA BKN040CB=

USA.gov is the U.S. government's official web portal to all federal, state and local government web resources and services.